Weather observations for the past three days for
Brigham City Regional Airport
Metric (Imperial)
Date Time (mdt) Wind (kph) Vis. (km) Weather Sky Cond. Temperature (ºC) Relative Humidity Wind Chill (°C) Heat Index (°C) Pressure Precipitation (cm)
Air Dwpt 6 hour altimeter (cm) sea level (mb) 1 hr 3 hr 6 hr
Max. Min.
08 06:35 E 7 16.09 Fair CLR 6 4 87% 5 76.2 0.0
08 06:15 NE 6 16.09 Fair CLR 8 4 76% 76.2 0.0
08 05:55 NW 4 16.09 Fair CLR 9 4 14.3 8.4 71% 76.17 0.0
08 05:35 NW 4 16.09 Fair CLR 10 5 71% 76.17 0.0
08 05:15 SE 7 16.09 Fair CLR 9 4 71% 8 76.15 0.0
08 04:55 Calm 16.09 Fair CLR 9 4 71% 76.12 0.0
08 04:35 NW 4 16.09 Fair CLR 9 4 71% 76.12 0.0
08 04:15 Vrbl 4 16.09 Fair CLR 10 6 76% 76.12 0.0
08 03:55 N 9 16.09 Fair CLR 10 5 71% 9 76.12 0.0
08 03:35 E 6 16.09 Fair CLR 11 5 67% 76.12 0.0
08 03:15 Vrbl 4 16.09 Fair CLR 11 2 54% 76.12 0.0
08 02:55 S 2 16.09 Fair CLR 12 3 54% 76.12 0.0
08 02:35 S 6 16.09 Fair CLR 12 4 58% 76.12 0.0
08 02:15 E 6 16.09 Fair CLR 11 4 62% 76.12 0.0
08 01:35 Vrbl 4 16.09 Fair CLR 11 5 67% 76.15 0.0
08 01:15 SE 6 16.09 Fair CLR 12 5 63% 76.12 0.0
08 00:55 N 6 16.09 Fair CLR 12 5 63% 76.12 0.0
08 00:35 E 7 16.09 Fair CLR 11 6 72% 76.12 0.0
08 00:15 N 6 16.09 Fair CLR 13 6 63% 76.1 0.0
07 23:55 Vrbl 2 16.09 Fair CLR 13 6 23.4 11.8 63% 76.1 0.0
07 23:35 SE 6 16.09 Fair CLR 12 8 77% 76.1 0.0
07 23:15 N 2 16.09 Fair CLR 14 7 63% 76.1 0.0
07 22:55 NW 6 16.09 Fair CLR 15 6 55% 76.1 0.0
07 22:35 NW 4 16.09 Fair CLR 16 5 48% 76.1 0.0
07 22:15 Calm 16.09 Fair CLR 16 9 63% 76.07 0.0
07 21:55 Calm 16.09 Fair CLR 17 8 56% 76.05 0.0
07 21:35 E 2 16.09 Fair CLR 18 7 49% 76.05 0.0
07 20:55 NE 2 16.09 Fair CLR 19 8 49% 76.02 0.0
07 20:35 NE 6 16.09 Fair CLR 19 8 49% 76 0.0
07 20:15 S 11 16.09 Fair CLR 21 6 38% 76 0.0
07 19:55 S 11 16.09 Fair CLR 22 5 33% 75.97 0.0
07 19:35 S 11 16.09 Fair CLR 23 4 29% 76 0.0
07 19:15 Vrbl 9 16.09 Fair CLR 23 3 27% 76 0.0
07 18:55 Vrbl 11 16.09 Fair CLR 23 3 27% 76 0.0
07 18:35 S 13 16.09 Fair CLR 23 3 27% 76.02 0.0
07 18:15 S 9 16.09 Fair CLR 23 3 27% 76.02 0.0
07 17:55 S 19 16.09 Fair CLR 23 3 23.2 19.3 27% 76.02 0.0
07 17:35 SW 15 16.09 Fair CLR 23 3 27% 76.02 0.0
07 17:15 S 24 G 30 16.09 Fair CLR 23 3 27% 76.02 0.0
07 16:55 S 17 G 28 16.09 Fair CLR 23 3 27% 76.05 0.0
07 16:35 SW 19 16.09 Fair CLR 23 2 25% 76.1 0.0
07 16:15 S 11 16.09 Fair CLR 22 2 27% 76.12 0.0
07 15:55 Vrbl 9 16.09 Fair CLR 22 2 27% 76.12 0.0
07 15:35 Vrbl 9 16.09 Fair CLR 22 1 25% 76.15 0.0
07 15:15 S 17 16.09 Fair CLR 21 1 27% 76.17 0.0
07 14:55 S 13 16.09 Fair CLR 20 1 28% 76.23 0.0
07 14:35 S 13 16.09 Fair CLR 21 0 25% 76.23 0.0
07 14:15 S 17 16.09 Fair CLR 20 0 26% 76.25 0.0
07 13:35 S 22 G 30 16.09 Fair CLR 20 1 28% 76.25 0.0
07 13:15 S 22 16.09 Fair CLR 20 1 28% 76.28 0.0
07 12:55 S 22 16.09 Fair CLR 20 0 26% 76.28 0.0
07 12:35 S 22 G 31 16.09 Fair CLR 20 0 26% 76.3 0.0
07 12:15 S 20 G 33 16.09 Fair CLR 20 0 26% 76.3 0.0
07 11:55 S 20 G 28 16.09 Fair CLR 20 -1 19.6 9.8 24% 76.3 0.0
07 11:15 S 22 16.09 Fair CLR 19 0 28% 76.33 0.0
07 10:55 S 26 16.09 Fair CLR 18 0 30% 76.33 0.0
07 10:35 S 26 16.09 Partly Cloudy SCT110 17 1 34% 76.35 0.0
07 09:55 S 28 G 35 16.09 A Few Clouds FEW110 17 1 34% 76.35 0.0
07 09:35 S 22 G 31 16.09 Mostly Cloudy BKN110 16 1 36% 76.38 0.0
07 09:15 S 6 16.09 Mostly Cloudy BKN110 15 1 39% 76.38 0.0
07 08:55 SW 11 16.09 Partly Cloudy SCT110 14 0 39% 76.38 0.0
07 08:35 S 15 16.09 Partly Cloudy SCT110 15 0 36% 76.38 0.0
07 08:15 NE 9 16.09 Mostly Cloudy BKN110 14 1 41% 76.38 0.0
07 07:55 N 7 16.09 Overcast OVC110 13 2 47% 76.35 0.0
07 07:35 N 13 16.09 Overcast OVC110 11 3 58% 76.35 0.0
07 07:15 N 9 16.09 Overcast OVC110 10 4 67% 9 76.33 0.0
07 06:55 N 11 16.09 Overcast OVC110 11 3 58% 76.35 0.0
07 06:35 Vrbl 4 16.09 Mostly Cloudy BKN100 11 1 50% 76.33 0.0
07 06:15 W 7 16.09 Overcast OVC100 12 1 47% 76.35 0.0
07 05:55 W 6 16.09 Overcast OVC100 11 1 13.9 10.8 50% 76.35 0.0
07 05:35 W 9 16.09 Mostly Cloudy FEW075 BKN090 13 0 41% 76.35 0.0
07 04:55 N 7 16.09 Mostly Cloudy FEW075 SCT095 BKN120 12 0 44% 76.35 0.0
07 04:35 NW 4 16.09 Overcast SCT075 BKN095 OVC120 13 0 41% 76.35 0.0
07 04:15 W 6 16.09 Mostly Cloudy SCT095 BKN120 14 -3 31% 76.38 0.0
07 03:55 Vrbl 6 16.09 A Few Clouds FEW100 13 -2 36% 76.38 0.0
07 03:35 Vrbl 4 16.09 Partly Cloudy SCT100 12 -1 41% 76.38 0.0
07 03:15 Vrbl 4 16.09 Overcast OVC090 13 -1 38% 76.38 0.0
07 02:55 Vrbl 6 16.09 Mostly Cloudy BKN090 13 -1 38% 76.38 0.0
07 02:35 Vrbl 2 16.09 A Few Clouds FEW090 13 -1 38% 76.4 0.0
07 02:15 NW 4 16.09 Fair CLR 13 0 41% 76.4 0.0
07 01:55 Vrbl 4 16.09 Fair CLR 13 -1 38% 76.4 0.0
07 01:35 Vrbl 2 16.09 Fair CLR 13 -1 38% 76.43 0.0
07 01:15 Vrbl 2 16.09 Fair CLR 13 -4 31% 76.43 0.0
07 00:55 Vrbl 2 16.09 Fair CLR 12 -2 38% 76.45 0.0
07 00:35 E 4 16.09 Fair CLR 11 1 50% 76.45 0.0
07 00:15 NE 4 16.09 Fair CLR 13 -1 38% 76.45 0.0
06 23:55 NE 11 16.09 Fair CLR 11 1 17.7 9.4 50% 76.45 0.0
06 23:35 NE 11 16.09 Fair CLR 9 4 71% 8 76.48 0.0
06 23:15 Vrbl 4 16.09 Fair CLR 12 1 47% 76.48 0.0
06 22:35 NW 6 16.09 Fair CLR 13 1 44% 76.45 0.0
06 22:15 Calm 16.09 Fair CLR 13 -1 38% 76.45 0.0
06 21:55 E 6 16.09 Fair CLR 13 -1 38% 76.48 0.0
06 21:35 Vrbl 6 16.09 Fair CLR 13 0 41% 76.45 0.0
06 21:15 Vrbl 9 16.09 Fair CLR 14 -1 36% 76.43 0.0
06 20:55 E 7 16.09 Fair CLR 13 1 44% 76.45 0.0
06 20:35 S 4 16.09 Fair CLR 14 0 39% 76.43 0.0
06 19:55 S 13 16.09 Fair CLR 16 0 34% 76.4 0.0
06 19:35 S 19 16.09 Fair CLR 16 -1 31% 76.43 0.0
06 19:15 S 20 16.09 Fair CLR 17 -1 30% 76.4 0.0
06 18:55 S 20 16.09 Fair CLR 17 -2 27% 76.43 0.0
06 18:35 S 22 16.09 Fair CLR 17 -1 30% 76.43 0.0
06 18:15 S 20 16.09 Fair CLR 17 -2 27% 76.43 0.0
06 17:55 S 15 16.09 Fair CLR 17 -2 17.8 13.6 27% 76.43 0.0
06 17:35 S 20 16.09 Fair CLR 17 -2 27% 76.43 0.0
06 17:15 SW 15 16.09 Fair CLR 17 -2 27% 76.43 0.0
06 16:55 S 26 16.09 Fair CLR 18 -2 26% 76.4 0.0
06 16:35 S 17 G 30 16.09 Fair CLR 17 -2 27% 76.43 0.0
06 16:15 SW 19 16.09 Fair CLR 18 -3 24% 76.43 0.0
06 15:55 SW 11 16.09 Fair CLR 17 -3 25% 76.43 0.0
06 15:35 W 17 16.09 Fair CLR 17 -3 25% 76.45 0.0
06 15:15 W 17 16.09 Fair CLR 17 -3 25% 76.48 0.0
06 14:55 Vrbl 4 16.09 Fair CLR 16 -4 25% 76.48 0.0
06 14:35 NW 9 16.09 Fair CLR 17 -5 22% 76.48 0.0
06 14:15 NW 19 16.09 Fair CLR 16 -5 23% 76.48 0.0
06 13:55 NW 17 G 30 16.09 Fair CLR 16 -5 23% 76.48 0.0
06 13:35 N 19 16.09 Fair CLR 16 -5 23% 76.48 0.0
06 13:15 NW 19 G 30 16.09 Fair CLR 15 -5 25% 76.5 0.0
06 12:55 N 20 G 35 16.09 Fair CLR 15 -6 23% 76.5 0.0
06 12:36 N 15 G 30 16.09 Fair CLR 15 -6 23% 76.5 0.0
06 12:15 NE 22 G 28 16.09 Fair CLR 15 -5 25% 76.5 0.0
06 11:55 N 19 16.09 Fair CLR 14 -10 14 6.2 18% 76.5 0.0
06 11:35 N 24 G 33 16.09 Fair CLR 13 -10 19% 76.5 0.0
06 11:15 NW 31 G 39 16.09 Fair CLR 13 -8 23% 76.53 0.0
06 10:55 W 15 G 26 16.09 Fair CLR 12 -9 22% 76.53 0.0
06 10:35 Vrbl 4 16.09 Fair CLR 11 -7 28% 76.5 0.0
06 10:15 NW 9 16.09 Fair CLR 11 -3 38% 76.5 0.0
06 09:55 NE 13 16.09 Fair CLR 10 -4 37% 8 76.5 0.0
06 09:35 E 24 G 30 16.09 Fair CLR 9 -3 43% 6 76.5 0.0
06 09:15 E 20 G 26 16.09 Fair CLR 9 -3 43% 6 76.48 0.0
06 08:55 NE 22 G 31 16.09 Fair CLR 9 -4 40% 6 76.45 0.0
06 08:35 E 19 16.09 Fair CLR 9 -5 37% 7 76.45 0.0
06 08:15 NE 17 G 26 16.09 Fair CLR 8 -7 34% 6 76.43 0.0
06 07:55 NE 19 16.09 Fair CLR 8 -6 37% 5 76.4 0.0
06 07:35 NE 17 G 35 16.09 Fair CLR 7 -5 43% 4 76.38 0.0
06 07:15 Vrbl 6 16.09 Fair CLR 6 -7 39% 76.35 0.0
06 06:55 SE 13 16.09 Fair CLR 6 -7 39% 4 76.3 0.0
06 06:35 S 17 16.09 Fair CLR 6 -5 46% 3 76.28 0.0
06 06:15 SW 11 16.09 A Few Clouds FEW095 7 -5 43% 5 76.25 0.0
06 05:55 NW 17 16.09 Partly Cloudy SCT095 8 -7 13.4 7.9 34% 6 76.2 0.0
06 05:35 W 15 16.09 Fair CLR 8 -4 43% 6 76.17 0.0
06 05:15 Vrbl 7 G 39 16.09 A Few Clouds FEW110 8 -4 43% 7 76.17 0.0
06 04:55 E 13 G 26 16.09 Mostly Cloudy BKN110 8 -2 50% 6 76.17 0.0
06 04:35 SE 15 G 31 16.09 Mostly Cloudy BKN110 9 -3 43% 7 76.17 0.0
06 04:15 Vrbl 7 G 26 16.09 Mostly Cloudy BKN095 10 -7 30% 9 76.15 0.0
06 03:55 NE 11 G 43 16.09 Overcast FEW075 OVC095 9 -2 46% 8 76.12 0.0
06 03:35 NE 28 G 46 16.09 Overcast FEW065 BKN075 OVC095 9 -1 50% 6 76.12 0.0
06 03:15 E 19 G 57 16.09 Mostly Cloudy SCT065 BKN075 BKN095 9 0 54% 7 76.1 0.0
06 02:55 E 44 G 74 16.09 Partly Cloudy and Windy FEW100 SCT120 9 1 58% 5 76.07 0.0
06 02:35 NE 63 G 76 16.09 Mostly Cloudy and Windy SCT065 SCT075 BKN095 9 1 58% 4 76.02 0.0
06 02:15 NE 35 G 70 16.09 Overcast and Breezy SCT050 BKN060 OVC100 10 1 54% 7 76.07 0.0
06 01:55 NE 56 G 89 16.09 Mostly Cloudy and Windy SCT080 BKN100 10 1 54% 6 75.97 0.0
06 01:35 NE 41 G 65 16.09 A Few Clouds and Breezy FEW100 11 1 50% 75.92 0.0
06 01:15 NE 11 16.09 Mostly Cloudy BKN100 13 -2 36% 75.92 0.0
06 00:55 NW 24 G 31 16.09 Overcast FEW070 OVC100 12 0 44% 75.87 0.0
06 00:35 NW 19 16.09 Overcast BKN070 OVC100 12 6 67% 75.87 0.0
06 00:15 N 13 16.09 Overcast BKN070 OVC090 13 8 72% 75.87 0.0
05 23:55 N 17 16.09 Overcast SCT070 OVC095 13 9 16.8 11.4 77% 75.84 0.0
05 23:35 N 4 16.09 Overcast OVC095 12 9 82% 75.82 0.0
05 23:15 E 6 16.09 Overcast OVC095 12 9 82% 75.79 0.0
05 22:55 E 7 16.09 Partly Cloudy SCT095 12 8 77% 75.79 0.0
05 22:35 S 9 16.09 Fair CLR 12 8 77% 75.77 0.0
05 22:15 SE 11 16.09 A Few Clouds FEW085 FEW110 12 9 82% 75.79 0.0
05 21:55 E 13 16.09 Mostly Cloudy FEW065 SCT075 BKN095 13 10 82% 75.77 0.0
05 21:35 Vrbl 2 16.09 Light Rain FEW050 OVC065 14 8 67% 75.77 0.0
05 21:15 NW 6 16.09 Overcast SCT065 BKN080 OVC100 14 8 67% 75.74 0.0
05 20:56 NE 6 16.09 Mostly Cloudy BKN110 14 8 67% 75.74 0.0
05 20:35 NE 7 16.09 Partly Cloudy SCT120 14 9 72% 75.69 0.0
05 20:15 E 4 16.09 Partly Cloudy SCT110 16 7 55% 75.69 0.0
05 19:55 SE 6 16.09 Fair CLR 16 5 48% 75.67 0.0
05 19:35 S 7 16.09 Fair CLR 16 5 48% 75.67 0.0
05 19:15 Vrbl 6 16.09 A Few Clouds FEW110 16 5 48% 75.64 0.0
05 18:55 SW 6 16.09 Partly Cloudy SCT110 16 5 48% 75.64 0.0
05 18:35 SW 9 16.09 Fair CLR 16 5 48% 75.64 0.0
05 18:15 SW 11 16.09 Fair CLR 16 5 48% 75.64 0.0
05 17:55 S 13 16.09 Fair CLR 17 6 17.1 10.1 49% 75.64 0.0
05 17:35 Vrbl 7 16.09 Fair CLR 17 6 49% 75.64 0.0
05 17:15 S 7 16.09 Fair CLR 16 6 52% 75.67 0.0
05 16:55 Vrbl 11 16.09 Fair CLR 16 6 52% 75.67 0.0
05 16:35 W 6 16.09 Fair CLR 16 6 52% 75.69 0.0
05 16:15 Vrbl 4 16.09 Fair CLR 17 6 49% 75.72 0.0
05 15:55 Vrbl 7 16.09 Fair CLR 16 7 55% 75.74 0.0
05 15:35 SE 4 16.09 Fair CLR 15 5 51% 75.77 0.0
05 15:15 Vrbl 4 16.09 Fair CLR 14 6 59% 75.79 0.0
05 14:55 Vrbl 4 16.09 Partly Cloudy FEW050 SCT070 14 6 59% 75.82 0.0
05 14:35 Vrbl 4 16.09 Overcast BKN050 OVC070 14 6 59% 75.84 0.0
05 14:15 S 6 16.09 Overcast BKN055 OVC070 14 7 63% 75.84 0.0
05 13:55 E 6 16.09 Overcast BKN060 OVC065 13 8 72% 75.84 0.0 0.08
05 13:35 E 9 16.09 Mostly Cloudy BKN070 11 9 88% 75.87 0.0
05 13:15 E 4 8.05 Light Rain Fog/Mist CLR 10 9 94% 75.87 0.0
05 12:55 N 17 4.02 Light Rain Fog/Mist FEW044 10 10 100% 8 75.9 0.0 0.1
05 12:35 N 20 9.66 Light Rain Fog/Mist FEW037 OVC044 11 9 88% 75.87 0.0
05 12:15 N 9 9.66 Light Rain Haze SCT046 BKN055 12 9 82% 75.84 0.0
05 11:55 E 4 16.09 Light Rain SCT048 OVC055 12 9 14.7 11.4 82% 75.82 0.0 0.03
05 11:35 SE 9 16.09 Overcast OVC048 12 9 82% 75.82 0.0
05 11:15 E 9 16.09 Light Rain OVC045 12 9 82% 75.79 0.0
05 10:55 E 13 16.09 Light Rain OVC045 12 8 77% 75.79 0.0
05 10:35 E 15 16.09 Overcast BKN043 OVC050 13 8 72% 75.77 0.0
05 10:15 E 9 16.09 Overcast FEW043 SCT050 OVC065 13 9 77% 75.77 0.0
05 09:35 E 9 16.09 Overcast FEW048 SCT055 OVC070 12 9 82% 75.77 0.0
05 09:15 N 15 4.83 Light Rain Fog/Mist BKN050 12 10 88% 75.77 0.0
05 08:55 NW 13 16.09 Light Rain OVC065 14 8 67% 75.74 0.0
05 08:35 NW 4 16.09 Overcast OVC070 15 6 55% 75.72 0.0
05 08:15 Calm 16.09 Overcast OVC070 14 6 59% 75.72 0.0
05 07:55 Calm 16.09 Overcast OVC070 14 7 63% 75.72 0.0
05 07:35 Calm 16.09 Overcast OVC070 14 7 63% 75.69 0.0
05 07:15 NE 6 16.09 Overcast OVC070 13 8 72% 75.69 0.0
Date Time (mdt) Wind (kph) Vis. (km) Weather Sky Cond. Air Dwpt Max. Min. Relative Humidity Wind Chill (°C) Heat Index (°C) altimeter (cm) sea level (mb) 1 hr 3 hr 6 hr
6 hour
Temperature (ºC) Pressure Precipitation (cm)